Time,TemperatureF,DewpointF,PressureIn,WindDirection,WindDirectionDegrees,WindSpeedMPH,WindSpeedGustMPH,Humidity,HourlyPrecipIn,Conditions,Clouds,dailyrainin,SoftwareType,DateUTC
2013-02-01 00:00:00,24.4,17.9,29.66,NW,313,4.0,8.0,76,0.00,,,0.64,Wunderground v.1.15,2013-02-01 05:00:00,
2013-02-01 00:10:00,24.4,17.6,29.66,WNW,294,2.0,8.0,75,0.00,,,0.00,Wunderground v.1.15,2013-02-01 05:10:00,
2013-02-01 00:15:00,24.3,17.2,29.66,West,274,2.0,8.0,74,0.00,,,0.00,Wunderground v.1.15,2013-02-01 05:15:00,
2013-02-01 00:20:00,24.3,16.6,29.67,NW,321,2.0,8.0,72,0.00,,,0.00,Wunderground v.1.15,2013-02-01 05:20:00,
2013-02-01 00:25:00,24.2,16.1,29.67,WNW,294,2.0,8.0,71,0.00,,,0.00,Wunderground v.1.15,2013-02-01 05:25:00,
2013-02-01 00:30:00,24.1,15.7,29.67,WNW,283,2.0,8.0,70,0.00,,,0.00,Wunderground v.1.15,2013-02-01 05:30:00,
2013-02-01 00:35:00,24.0,15.3,29.67,West,265,3.0,8.0,69,0.00,,,0.00,Wunderground v.1.15,2013-02-01 05:35:00,
2013-02-01 00:45:00,24.0,14.3,29.67,NW,322,3.0,8.0,66,0.00,,,0.00,Wunderground v.1.15,2013-02-01 05:45:00,
2013-02-01 00:50:00,23.9,14.2,29.68,WNW,294,2.0,8.0,66,0.00,,,0.00,Wunderground v.1.15,2013-02-01 05:50:00,
2013-02-01 00:55:00,24.0,13.6,29.67,WNW,285,3.0,8.0,64,0.00,,,0.00,Wunderground v.1.15,2013-02-01 05:55:00,
2013-02-01 01:00:00,24.0,13.6,29.68,West,265,3.0,3.0,64,0.00,,,0.00,Wunderground v.1.15,2013-02-01 06:00:00,
2013-02-01 01:05:00,24.0,13.2,29.68,NW,316,2.0,8.0,63,0.00,,,0.00,Wunderground v.1.15,2013-02-01 06:05:00,
2013-02-01 01:15:00,23.8,12.7,29.69,WNW,303,4.0,8.0,62,0.00,,,0.00,Wunderground v.1.15,2013-02-01 06:15:00,
2013-02-01 01:20:00,23.8,12.7,29.69,NNW,329,4.0,8.0,62,0.00,,,0.00,Wunderground v.1.15,2013-02-01 06:20:00,
2013-02-01 01:25:00,23.8,12.7,29.69,WNW,298,4.0,8.0,62,0.00,,,0.00,Wunderground v.1.15,2013-02-01 06:25:00,
2013-02-01 01:30:00,23.8,12.3,29.69,NW,304,5.0,5.0,61,0.00,,,0.00,Wunderground v.1.15,2013-02-01 06:30:00,
2013-02-01 01:40:00,23.8,12.3,29.70,West,273,4.0,8.0,61,0.00,,,0.00,Wunderground v.1.15,2013-02-01 06:40:00,
2013-02-01 01:45:00,23.8,12.3,29.70,WNW,300,4.0,8.0,61,0.00,,,0.00,Wunderground v.1.15,2013-02-01 06:45:00,
2013-02-01 01:50:00,23.8,12.3,29.70,North,355,4.0,8.0,61,0.00,,,0.00,Wunderground v.1.15,2013-02-01 06:50:00,
2013-02-01 01:55:00,23.8,11.5,29.70,NNW,336,5.0,8.0,59,0.00,,,0.00,Wunderground v.1.15,2013-02-01 06:55:00,
2013-02-01 02:05:00,23.7,12.2,29.71,WNW,300,3.0,8.0,61,0.00,,,0.00,Wunderground v.1.15,2013-02-01 07:05:00,
2013-02-01 02:15:00,23.5,11.6,29.71,SW,225,3.0,8.0,60,0.00,,,0.00,Wunderground v.1.15,2013-02-01 07:15:00,
2013-02-01 02:20:00,23.4,11.5,29.71,NNW,330,3.0,3.0,60,0.00,,,0.00,Wunderground v.1.15,2013-02-01 07:20:00,
2013-02-01 02:25:00,23.4,11.5,29.71,WNW,302,3.0,8.0,60,0.00,,,0.00,Wunderground v.1.15,2013-02-01 07:25:00,
2013-02-01 02:30:00,23.3,11.4,29.71,WNW,288,3.0,8.0,60,0.00,,,0.00,Wunderground v.1.15,2013-02-01 07:30:00,
2013-02-01 02:35:00,23.2,11.7,29.71,WNW,298,2.0,8.0,61,0.00,,,0.00,Wunderground v.1.15,2013-02-01 07:35:00,
2013-02-01 02:40:00,23.1,11.3,29.71,NNW,337,2.0,2.0,60,0.00,,,0.00,Wunderground v.1.15,2013-02-01 07:40:00,
2013-02-01 02:45:00,23.0,11.9,29.71,WNW,296,1.0,8.0,62,0.00,,,0.00,Wunderground v.1.15,2013-02-01 07:45:00,
2013-02-01 02:50:00,23.0,11.5,29.71,NW,309,2.0,2.0,61,0.00,,,0.00,Wunderground v.1.15,2013-02-01 07:50:00,
2013-02-01 03:00:00,23.0,11.2,29.71,NW,320,2.0,8.0,60,0.00,,,0.00,Wunderground v.1.15,2013-02-01 08:00:00,
2013-02-01 03:05:00,23.0,11.5,29.71,WNW,297,3.0,8.0,61,0.00,,,0.00,Wunderground v.1.15,2013-02-01 08:05:00,
2013-02-01 03:10:00,23.0,11.5,29.71,WNW,294,1.0,1.0,61,0.00,,,0.00,Wunderground v.1.15,2013-02-01 08:10:00,
2013-02-01 03:15:00,22.9,11.4,29.72,WNW,298,1.0,8.0,61,0.00,,,0.00,Wunderground v.1.15,2013-02-01 08:15:00,
2013-02-01 03:20:00,23.0,11.2,29.72,West,277,2.0,8.0,60,0.00,,,0.00,Wunderground v.1.15,2013-02-01 08:20:00,
2013-02-01 03:25:00,23.1,11.3,29.71,WNW,286,3.0,8.0,60,0.00,,,0.00,Wunderground v.1.15,2013-02-01 08:25:00,
2013-02-01 03:35:00,23.1,11.3,29.71,WNW,296,1.0,8.0,60,0.00,,,0.00,Wunderground v.1.15,2013-02-01 08:35:00,
2013-02-01 03:40:00,23.1,11.6,29.71,West,271,2.0,2.0,61,0.00,,,0.00,Wunderground v.1.15,2013-02-01 08:40:00,
2013-02-01 03:45:00,23.1,11.3,29.71,WNW,288,2.0,3.0,60,0.00,,,0.00,Wunderground v.1.15,2013-02-01 08:45:00,
2013-02-01 03:50:00,23.2,11.0,29.71,WNW,302,2.0,8.0,59,0.00,,,0.00,Wunderground v.1.15,2013-02-01 08:50:00,
2013-02-01 03:55:00,23.1,11.3,29.71,WNW,300,2.0,8.0,60,0.00,,,0.00,Wunderground v.1.15,2013-02-01 08:55:00,
2013-02-01 04:00:00,23.1,11.3,29.71,WSW,251,1.0,8.0,60,0.00,,,0.00,Wunderground v.1.15,2013-02-01 09:00:00,
2013-02-01 04:05:00,23.0,11.2,29.71,NW,317,1.0,8.0,60,0.00,,,0.00,Wunderground v.1.15,2013-02-01 09:05:00,
2013-02-01 04:10:00,23.0,11.2,29.71,NW,317,1.0,8.0,60,0.00,,,0.00,Wunderground v.1.15,2013-02-01 09:10:00,
2013-02-01 04:20:00,22.9,11.1,29.71,NW,326,1.0,8.0,60,0.00,,,0.00,Wunderground v.1.15,2013-02-01 09:20:00,
2013-02-01 04:25:00,22.7,10.9,29.71,WNW,302,1.0,8.0,60,0.00,,,0.00,Wunderground v.1.15,2013-02-01 09:25:00,
2013-02-01 04:30:00,22.7,10.9,29.71,NNE,29,1.0,8.0,60,0.00,,,0.00,Wunderground v.1.15,2013-02-01 09:30:00,
2013-02-01 04:35:00,22.6,11.2,29.71,North,360,1.0,8.0,61,0.00,,,0.00,Wunderground v.1.15,2013-02-01 09:35:00,
2013-02-01 04:40:00,22.4,11.3,29.71,WNW,284,0.0,8.0,62,0.00,,,0.00,Wunderground v.1.15,2013-02-01 09:40:00,
2013-02-01 04:45:00,22.4,11.3,29.71,West,273,0.0,8.0,62,0.00,,,0.00,Wunderground v.1.15,2013-02-01 09:45:00,
2013-02-01 04:55:00,22.4,11.3,29.71,West,262,1.0,8.0,62,0.00,,,0.00,Wunderground v.1.15,2013-02-01 09:55:00,
2013-02-01 05:00:00,22.3,11.6,29.72,WNW,290,1.0,8.0,63,0.00,,,0.00,Wunderground v.1.15,2013-02-01 10:00:00,
2013-02-01 05:05:00,22.4,11.7,29.72,WNW,290,2.0,8.0,63,0.00,,,0.00,Wunderground v.1.15,2013-02-01 10:05:00,
2013-02-01 05:10:00,22.3,12.3,29.72,West,281,1.0,1.0,65,0.00,,,0.00,Wunderground v.1.15,2013-02-01 10:10:00,
2013-02-01 05:15:00,22.3,12.3,29.72,West,264,2.0,2.0,65,0.00,,,0.00,Wunderground v.1.15,2013-02-01 10:15:00,
2013-02-01 05:20:00,22.3,12.7,29.73,WNW,299,1.0,8.0,66,0.00,,,0.00,Wunderground v.1.15,2013-02-01 10:20:00,
2013-02-01 05:25:00,22.1,12.8,29.73,West,278,1.0,8.0,67,0.00,,,0.00,Wunderground v.1.15,2013-02-01 10:25:00,
2013-02-01 05:35:00,22.2,13.2,29.73,WNW,303,2.0,8.0,68,0.00,,,0.00,Wunderground v.1.15,2013-02-01 10:35:00,
2013-02-01 05:45:00,22.2,13.2,29.74,WNW,303,3.0,8.0,68,0.00,,,0.00,Wunderground v.1.15,2013-02-01 10:45:00,
2013-02-01 05:50:00,22.2,13.6,29.74,West,281,3.0,8.0,69,0.00,,,0.00,Wunderground v.1.15,2013-02-01 10:50:00,
2013-02-01 05:55:00,22.2,13.6,29.74,NNW,336,3.0,8.0,69,0.00,,,0.00,Wunderground v.1.15,2013-02-01 10:55:00,
2013-02-01 06:00:00,22.2,13.6,29.74,NW,318,3.0,3.0,69,0.00,,,0.00,Wunderground v.1.15,2013-02-01 11:00:00,
2013-02-01 06:05:00,22.2,13.6,29.75,WNW,282,4.0,4.0,69,0.00,,,0.00,Wunderground v.1.15,2013-02-01 11:05:00,
2013-02-01 06:10:00,22.2,13.9,29.75,West,281,3.0,3.0,70,0.00,,,0.00,Wunderground v.1.15,2013-02-01 11:10:00,
2013-02-01 06:15:00,22.2,13.6,29.75,WNW,289,3.0,6.0,69,0.00,,,0.00,Wunderground v.1.15,2013-02-01 11:15:00,
2013-02-01 06:20:00,22.2,13.6,29.76,West,277,4.0,4.0,69,0.00,,,0.00,Wunderground v.1.15,2013-02-01 11:20:00,
2013-02-01 06:30:00,22.2,13.6,29.77,WNW,286,2.0,2.0,69,0.00,,,0.00,Wunderground v.1.15,2013-02-01 11:30:00,
2013-02-01 06:35:00,22.3,13.7,29.76,West,281,3.0,4.0,69,0.00,,,0.00,Wunderground v.1.15,2013-02-01 11:35:00,
2013-02-01 06:40:00,22.4,13.8,29.77,NW,311,4.0,4.0,69,0.00,,,0.00,Wunderground v.1.15,2013-02-01 11:40:00,
2013-02-01 06:45:00,22.3,13.7,29.77,West,279,3.0,8.0,69,0.00,,,0.00,Wunderground v.1.15,2013-02-01 11:45:00,
2013-02-01 06:50:00,22.1,13.5,29.77,SSW,213,2.0,8.0,69,0.00,,,0.00,Wunderground v.1.15,2013-02-01 11:50:00,
2013-02-01 06:55:00,22.1,13.8,29.78,WNW,284,2.0,8.0,70,0.00,,,0.00,Wunderground v.1.15,2013-02-01 11:55:00,
2013-02-01 07:05:00,22.2,13.9,29.78,NNW,334,3.0,8.0,70,0.00,,,0.00,Wunderground v.1.15,2013-02-01 12:05:00,
2013-02-01 07:10:00,22.2,14.2,29.78,West,279,2.0,8.0,71,0.00,,,0.00,Wunderground v.1.15,2013-02-01 12:10:00,
2013-02-01 07:15:00,22.3,14.0,29.78,SW,222,3.0,8.0,70,0.00,,,0.00,Wunderground v.1.15,2013-02-01 12:15:00,
2013-02-01 07:20:00,22.3,14.0,29.79,NNW,346,3.0,3.0,70,0.00,,,0.00,Wunderground v.1.15,2013-02-01 12:20:00,
2013-02-01 07:25:00,22.4,14.4,29.79,West,275,1.0,8.0,71,0.00,,,0.00,Wunderground v.1.15,2013-02-01 12:25:00,
2013-02-01 07:30:00,22.4,14.1,29.80,WNW,303,2.0,2.0,70,0.00,,,0.00,Wunderground v.1.15,2013-02-01 12:30:00,
2013-02-01 07:35:00,22.6,14.3,29.80,WNW,282,2.0,8.0,70,0.00,,,0.00,Wunderground v.1.15,2013-02-01 12:35:00,
2013-02-01 07:45:00,22.8,14.5,29.80,SSW,195,1.0,8.0,70,0.00,,,0.00,Wunderground v.1.15,2013-02-01 12:45:00,
2013-02-01 07:50:00,22.8,14.5,29.81,WNW,290,1.0,8.0,70,0.00,,,0.00,Wunderground v.1.15,2013-02-01 12:50:00,
2013-02-01 07:55:00,22.7,14.4,29.81,West,278,2.0,8.0,70,0.00,,,0.00,Wunderground v.1.15,2013-02-01 12:55:00,
2013-02-01 08:00:00,22.7,14.4,29.81,NW,309,1.0,1.0,70,0.00,,,0.00,Wunderground v.1.15,2013-02-01 13:00:00,
2013-02-01 08:05:00,22.7,14.4,29.81,WNW,297,2.0,2.0,70,0.00,,,0.00,Wunderground v.1.15,2013-02-01 13:05:00,
2013-02-01 08:10:00,22.6,14.3,29.82,WSW,258,3.0,8.0,70,0.00,,,0.00,Wunderground v.1.15,2013-02-01 13:10:00,
2013-02-01 08:20:00,22.7,14.4,29.82,NW,325,1.0,8.0,70,0.00,,,0.00,Wunderground v.1.15,2013-02-01 13:20:00,
2013-02-01 08:25:00,22.9,14.6,29.82,West,262,1.0,8.0,70,0.00,,,0.00,Wunderground v.1.15,2013-02-01 13:25:00,
2013-02-01 08:30:00,23.0,15.0,29.82,NNW,327,1.0,1.0,71,0.00,,,0.00,Wunderground v.1.15,2013-02-01 13:30:00,
2013-02-01 08:35:00,23.1,14.4,29.83,SW,215,1.0,3.0,69,0.00,,,0.00,Wunderground v.1.15,2013-02-01 13:35:00,
2013-02-01 08:40:00,23.1,14.8,29.83,NW,319,2.0,2.0,70,0.00,,,0.00,Wunderground v.1.15,2013-02-01 13:40:00,
2013-02-01 08:45:00,23.2,14.9,29.83,West,265,2.0,3.0,70,0.00,,,0.00,Wunderground v.1.15,2013-02-01 13:45:00,
2013-02-01 08:50:00,23.3,14.6,29.83,NNW,327,2.0,2.0,69,0.00,,,0.00,Wunderground v.1.15,2013-02-01 13:50:00,
2013-02-01 09:00:00,23.5,14.5,29.83,WNW,285,2.0,8.0,68,0.00,,,0.00,Wunderground v.1.15,2013-02-01 14:00:00,
2013-02-01 09:10:00,23.9,15.5,29.83,NNE,17,2.0,8.0,70,0.00,,,0.00,Wunderground v.1.15,2013-02-01 14:10:00,
2013-02-01 09:15:00,24.5,15.8,29.82,NW,320,2.0,8.0,69,0.00,,,0.00,Wunderground v.1.15,2013-02-01 14:15:00,
2013-02-01 09:20:00,24.9,16.2,29.82,NNE,15,2.0,8.0,69,0.00,,,0.00,Wunderground v.1.15,2013-02-01 14:20:00,
2013-02-01 09:25:00,24.1,15.7,29.82,NE,50,3.0,8.0,70,0.00,,,0.00,Wunderground v.1.15,2013-02-01 14:25:00,
2013-02-01 09:30:00,23.8,16.7,29.81,NE,36,4.0,8.0,74,0.00,,,0.00,Wunderground v.1.15,2013-02-01 14:30:00,
2013-02-01 09:40:00,24.4,17.3,29.81,West,281,4.0,4.0,74,0.00,,,0.00,Wunderground v.1.15,2013-02-01 14:40:00,
2013-02-01 09:45:00,24.8,17.1,29.81,NW,308,2.0,8.0,72,0.00,,,0.00,Wunderground v.1.15,2013-02-01 14:45:00,
2013-02-01 09:50:00,25.1,16.4,29.81,NE,46,3.0,3.0,69,0.00,,,0.00,Wunderground v.1.15,2013-02-01 14:50:00,
2013-02-01 09:55:00,25.2,15.4,29.82,North,355,3.0,8.0,66,0.00,,,0.00,Wunderground v.1.15,2013-02-01 14:55:00,
2013-02-01 10:00:00,25.1,14.6,29.82,NW,323,4.0,4.0,64,0.00,,,0.00,Wunderground v.1.15,2013-02-01 15:00:00,
2013-02-01 10:05:00,24.5,14.4,29.83,ENE,67,4.0,8.0,65,0.00,,,0.00,Wunderground v.1.15,2013-02-01 15:05:00,
2013-02-01 10:10:00,24.2,13.8,29.83,North,355,3.0,3.0,64,0.00,,,0.00,Wunderground v.1.15,2013-02-01 15:10:00,
2013-02-01 10:20:00,25.1,13.5,29.83,WNW,303,4.0,8.0,61,0.00,,,0.00,Wunderground v.1.15,2013-02-01 15:20:00,
2013-02-01 10:30:00,25.4,13.8,29.84,North,355,3.0,8.0,61,0.00,,,0.00,Wunderground v.1.15,2013-02-01 15:30:00,
2013-02-01 10:35:00,25.2,13.2,29.84,WNW,284,3.0,8.0,60,0.00,,,0.00,Wunderground v.1.15,2013-02-01 15:35:00,
2013-02-01 10:40:00,24.9,13.0,29.84,NE,44,3.0,8.0,60,0.00,,,0.00,Wunderground v.1.15,2013-02-01 15:40:00,
2013-02-01 10:45:00,24.6,12.3,29.84,NNW,327,3.0,8.0,59,0.00,,,0.00,Wunderground v.1.15,2013-02-01 15:45:00,
2013-02-01 10:50:00,24.5,12.6,29.84,North,360,2.0,2.0,60,0.00,,,0.00,Wunderground v.1.15,2013-02-01 15:50:00,
2013-02-01 10:55:00,24.5,12.6,29.84,NE,52,1.0,4.0,60,0.00,,,0.00,Wunderground v.1.15,2013-02-01 15:55:00,
2013-02-01 11:00:00,24.6,13.1,29.84,North,360,1.0,8.0,61,0.00,,,0.00,Wunderground v.1.15,2013-02-01 16:00:00,
2013-02-01 11:10:00,24.5,12.6,29.84,NNE,18,2.0,8.0,60,0.00,,,0.00,Wunderground v.1.15,2013-02-01 16:10:00,
2013-02-01 11:15:00,24.5,12.6,29.84,NNE,17,2.0,8.0,60,0.00,,,0.00,Wunderground v.1.15,2013-02-01 16:15:00,
2013-02-01 11:20:00,24.8,11.7,29.84,North,11,2.0,8.0,57,0.00,,,0.00,Wunderground v.1.15,2013-02-01 16:20:00,
2013-02-01 11:25:00,25.9,9.8,29.84,NNW,343,3.0,8.0,50,0.00,,,0.00,Wunderground v.1.15,2013-02-01 16:25:00,
2013-02-01 11:30:00,26.4,9.8,29.83,NNE,30,3.0,3.0,49,0.00,,,0.00,Wunderground v.1.15,2013-02-01 16:30:00,
2013-02-01 11:35:00,27.0,9.4,29.83,NNW,342,3.0,5.0,47,0.00,,,0.00,Wunderground v.1.15,2013-02-01 16:35:00,
2013-02-01 11:40:00,27.4,9.3,29.83,NW,319,3.0,3.0,46,0.00,,,0.00,Wunderground v.1.15,2013-02-01 16:40:00,
2013-02-01 11:45:00,27.1,9.0,29.83,NE,34,4.0,4.0,46,0.00,,,0.00,Wunderground v.1.15,2013-02-01 16:45:00,
2013-02-01 11:55:00,26.2,8.7,29.83,NNE,23,2.0,8.0,47,0.00,,,0.00,Wunderground v.1.15,2013-02-01 16:55:00,
2013-02-01 12:00:00,25.9,9.3,29.83,NNE,17,2.0,8.0,49,0.00,,,0.00,Wunderground v.1.15,2013-02-01 17:00:00,
2013-02-01 12:05:00,25.3,8.8,29.83,NW,326,3.0,8.0,49,0.00,,,0.00,Wunderground v.1.15,2013-02-01 17:05:00,
2013-02-01 12:10:00,25.2,9.6,29.83,North,5,3.0,3.0,51,0.00,,,0.00,Wunderground v.1.15,2013-02-01 17:10:00,
2013-02-01 12:15:00,25.1,9.5,29.83,East,91,3.0,5.0,51,0.00,,,0.00,Wunderground v.1.15,2013-02-01 17:15:00,
2013-02-01 12:25:00,24.8,10.9,29.82,North,5,4.0,8.0,55,0.00,,,0.00,Wunderground v.1.15,2013-02-01 17:25:00,
2013-02-01 12:30:00,25.0,10.3,29.83,North,9,3.0,8.0,53,0.00,,,0.00,Wunderground v.1.15,2013-02-01 17:30:00,
2013-02-01 12:35:00,25.1,9.9,29.83,NNE,32,4.0,8.0,52,0.00,,,0.00,Wunderground v.1.15,2013-02-01 17:35:00,
2013-02-01 12:40:00,24.8,9.6,29.83,NNE,26,5.0,5.0,52,0.00,,,0.00,Wunderground v.1.15,2013-02-01 17:40:00,
2013-02-01 12:45:00,24.8,9.6,29.83,East,90,5.0,8.0,52,0.00,,,0.00,Wunderground v.1.15,2013-02-01 17:45:00,
2013-02-01 12:50:00,24.8,9.6,29.83,NE,34,4.0,4.0,52,0.00,,,0.00,Wunderground v.1.15,2013-02-01 17:50:00,
2013-02-01 12:55:00,24.8,9.6,29.83,NNE,30,4.0,8.0,52,0.00,,,0.00,Wunderground v.1.15,2013-02-01 17:55:00,
2013-02-01 13:05:00,26.4,10.7,29.83,East,83,3.0,8.0,51,0.00,,,0.00,Wunderground v.1.15,2013-02-01 18:05:00,
2013-02-01 13:10:00,26.3,9.2,29.83,North,355,5.0,8.0,48,0.00,,,0.00,Wunderground v.1.15,2013-02-01 18:10:00,
2013-02-01 13:15:00,26.4,9.3,29.83,NNW,341,5.0,8.0,48,0.00,,,0.00,Wunderground v.1.15,2013-02-01 18:15:00,
2013-02-01 13:20:00,26.4,10.3,29.83,NW,310,3.0,8.0,50,0.00,,,0.00,Wunderground v.1.15,2013-02-01 18:20:00,
2013-02-01 13:25:00,27.0,9.9,29.83,NE,40,3.0,8.0,48,0.00,,,0.00,Wunderground v.1.15,2013-02-01 18:25:00,
2013-02-01 13:30:00,26.9,9.3,29.83,WNW,300,4.0,4.0,47,0.00,,,0.00,Wunderground v.1.15,2013-02-01 18:30:00,
2013-02-01 13:35:00,26.8,9.7,29.83,NNE,28,4.0,6.0,48,0.00,,,0.00,Wunderground v.1.15,2013-02-01 18:35:00,
2013-02-01 13:45:00,26.7,9.6,29.83,NNE,29,4.0,8.0,48,0.00,,,0.00,Wunderground v.1.15,2013-02-01 18:45:00,
2013-02-01 13:50:00,26.3,8.8,29.84,NE,34,4.0,4.0,47,0.00,,,0.00,Wunderground v.1.15,2013-02-01 18:50:00,
2013-02-01 13:55:00,26.8,9.7,29.84,NW,310,3.0,8.0,48,0.00,,,0.00,Wunderground v.1.15,2013-02-01 18:55:00,
2013-02-01 14:00:00,27.2,9.1,29.84,NNW,342,4.0,10.0,46,0.00,,,0.00,Wunderground v.1.15,2013-02-01 19:00:00,
2013-02-01 14:05:00,27.4,10.3,29.84,NNW,342,4.0,10.0,48,0.00,,,0.00,Wunderground v.1.15,2013-02-01 19:05:00,
2013-02-01 14:10:00,27.2,9.1,29.85,East,86,5.0,8.0,46,0.00,,,0.00,Wunderground v.1.15,2013-02-01 19:10:00,
2013-02-01 14:15:00,27.6,10.9,29.84,ENE,68,5.0,8.0,49,0.00,,,0.00,Wunderground v.1.15,2013-02-01 19:15:00,
2013-02-01 14:20:00,27.4,9.3,29.85,NE,49,4.0,4.0,46,0.00,,,0.00,Wunderground v.1.15,2013-02-01 19:20:00,
2013-02-01 14:25:00,26.8,8.8,29.85,NNE,25,4.0,10.0,46,0.00,,,0.00,Wunderground v.1.15,2013-02-01 19:25:00,
2013-02-01 14:30:00,26.2,8.7,29.86,NNE,16,5.0,8.0,47,0.00,,,0.00,Wunderground v.1.15,2013-02-01 19:30:00,
2013-02-01 14:40:00,24.6,12.3,29.87,North,10,6.0,6.0,59,0.00,,,0.00,Wunderground v.1.15,2013-02-01 19:40:00,
2013-02-01 14:45:00,24.2,14.1,29.88,NNE,28,5.0,8.0,65,0.00,,,0.00,Wunderground v.1.15,2013-02-01 19:45:00,
2013-02-01 14:50:00,24.1,15.4,29.88,North,360,4.0,4.0,69,0.00,,,0.00,Wunderground v.1.15,2013-02-01 19:50:00,
2013-02-01 14:55:00,24.6,15.5,29.88,NE,37,2.0,8.0,68,0.00,,,0.00,Wunderground v.1.15,2013-02-01 19:55:00,
2013-02-01 15:00:00,24.4,15.3,29.88,NE,47,3.0,8.0,68,0.00,,,0.00,Wunderground v.1.15,2013-02-01 20:00:00,
2013-02-01 15:05:00,24.3,15.6,29.89,NNE,33,5.0,8.0,69,0.00,,,0.00,Wunderground v.1.15,2013-02-01 20:05:00,
2013-02-01 15:10:00,24.2,14.8,29.89,NNE,27,3.0,3.0,67,0.00,,,0.00,Wunderground v.1.15,2013-02-01 20:10:00,
2013-02-01 15:15:00,23.9,14.2,29.90,NE,44,3.0,6.0,66,0.00,,,0.00,Wunderground v.1.15,2013-02-01 20:15:00,
2013-02-01 15:25:00,24.2,13.0,29.90,NE,36,4.0,8.0,62,0.00,,,0.00,Wunderground v.1.15,2013-02-01 20:25:00,
2013-02-01 15:35:00,23.8,15.1,29.91,NNE,28,6.0,10.0,69,0.00,,,0.00,Wunderground v.1.15,2013-02-01 20:35:00,
2013-02-01 15:40:00,22.7,15.7,29.92,North,5,7.0,7.0,74,0.00,,,0.00,Wunderground v.1.15,2013-02-01 20:40:00,
2013-02-01 15:45:00,22.1,15.7,29.92,NE,51,4.0,9.0,76,0.00,,,0.00,Wunderground v.1.15,2013-02-01 20:45:00,
2013-02-01 15:50:00,21.9,15.2,29.93,ENE,71,4.0,8.0,75,0.00,,,0.00,Wunderground v.1.15,2013-02-01 20:50:00,
2013-02-01 15:55:00,21.8,15.1,29.93,North,11,5.0,8.0,75,0.00,,,0.00,Wunderground v.1.15,2013-02-01 20:55:00,
2013-02-01 16:00:00,21.9,13.9,29.93,NE,44,4.0,8.0,71,0.00,,,0.00,Wunderground v.1.15,2013-02-01 21:00:00,
2013-02-01 16:10:00,22.1,11.8,29.94,NNE,13,3.0,8.0,64,0.00,,,0.00,Wunderground v.1.15,2013-02-01 21:10:00,
2013-02-01 16:15:00,22.3,11.6,29.94,NE,36,3.0,8.0,63,0.00,,,0.00,Wunderground v.1.15,2013-02-01 21:15:00,
2013-02-01 16:20:00,22.5,11.4,29.94,North,355,2.0,8.0,62,0.00,,,0.00,Wunderground v.1.15,2013-02-01 21:20:00,
2013-02-01 16:25:00,22.7,11.3,29.95,ENE,62,3.0,8.0,61,0.00,,,0.00,Wunderground v.1.15,2013-02-01 21:25:00,
2013-02-01 16:30:00,22.8,9.8,29.95,North,10,4.0,4.0,57,0.00,,,0.00,Wunderground v.1.15,2013-02-01 21:30:00,
2013-02-01 16:35:00,22.8,9.8,29.96,North,360,5.0,5.0,57,0.00,,,0.00,Wunderground v.1.15,2013-02-01 21:35:00,
2013-02-01 16:40:00,22.8,9.4,29.96,NNW,336,5.0,5.0,56,0.00,,,0.00,Wunderground v.1.15,2013-02-01 21:40:00,
2013-02-01 16:45:00,22.7,9.7,29.96,NE,50,3.0,8.0,57,0.00,,,0.00,Wunderground v.1.15,2013-02-01 21:45:00,
2013-02-01 16:55:00,22.5,9.1,29.97,NNW,347,3.0,8.0,56,0.00,,,0.00,Wunderground v.1.15,2013-02-01 21:55:00,
2013-02-01 17:00:00,22.1,9.6,29.98,NNW,337,3.0,3.0,58,0.00,,,0.00,Wunderground v.1.15,2013-02-01 22:00:00,
2013-02-01 17:05:00,22.0,10.2,29.99,North,351,3.0,8.0,60,0.00,,,0.00,Wunderground v.1.15,2013-02-01 22:05:00,
2013-02-01 17:10:00,21.7,9.6,29.99,NNW,348,3.0,8.0,59,0.00,,,0.00,Wunderground v.1.15,2013-02-01 22:10:00,
2013-02-01 17:20:00,21.2,9.8,30.00,SSE,164,5.0,5.0,61,0.00,,,0.00,Wunderground v.1.15,2013-02-01 22:20:00,
2013-02-01 17:25:00,21.1,10.5,30.00,NNE,18,4.0,8.0,63,0.00,,,0.00,Wunderground v.1.15,2013-02-01 22:25:00,
2013-02-01 17:30:00,20.9,9.9,30.00,NNW,329,3.0,8.0,62,0.00,,,0.00,Wunderground v.1.15,2013-02-01 22:30:00,
2013-02-01 17:35:00,20.9,9.5,30.01,WNW,302,2.0,8.0,61,0.00,,,0.00,Wunderground v.1.15,2013-02-01 22:35:00,
2013-02-01 17:40:00,20.9,9.2,30.01,NE,55,3.0,3.0,60,0.00,,,0.00,Wunderground v.1.15,2013-02-01 22:40:00,
2013-02-01 17:45:00,21.0,8.1,30.01,NE,55,4.0,4.0,57,0.00,,,0.00,Wunderground v.1.15,2013-02-01 22:45:00,
2013-02-01 17:50:00,21.0,7.3,30.02,North,9,4.0,8.0,55,0.00,,,0.00,Wunderground v.1.15,2013-02-01 22:50:00,
2013-02-01 18:00:00,21.0,6.9,30.03,NNE,33,3.0,3.0,54,0.00,,,0.00,Wunderground v.1.15,2013-02-01 23:00:00,
2013-02-01 18:05:00,21.0,6.9,30.03,NNE,32,2.0,8.0,54,0.00,,,0.00,Wunderground v.1.15,2013-02-01 23:05:00,
2013-02-01 18:10:00,21.0,6.5,30.04,North,360,2.0,2.0,53,0.00,,,0.00,Wunderground v.1.15,2013-02-01 23:10:00,
2013-02-01 18:15:00,20.9,6.8,30.04,NNW,331,2.0,8.0,54,0.00,,,0.00,Wunderground v.1.15,2013-02-01 23:15:00,
2013-02-01 18:20:00,20.9,6.8,30.05,NE,40,2.0,2.0,54,0.00,,,0.00,Wunderground v.1.15,2013-02-01 23:20:00,
2013-02-01 18:25:00,20.8,7.2,30.05,NE,44,2.0,4.0,55,0.00,,,0.00,Wunderground v.1.15,2013-02-01 23:25:00,
2013-02-01 18:30:00,20.7,6.7,30.05,NE,55,3.0,8.0,54,0.00,,,0.00,Wunderground v.1.15,2013-02-01 23:30:00,
2013-02-01 18:40:00,20.4,6.8,30.06,NNE,22,2.0,2.0,55,0.00,,,0.00,Wunderground v.1.15,2013-02-01 23:40:00,
2013-02-01 18:45:00,20.4,6.8,30.06,NE,44,2.0,5.0,55,0.00,,,0.00,Wunderground v.1.15,2013-02-01 23:45:00,
2013-02-01 18:50:00,20.2,7.0,30.07,NNE,13,2.0,2.0,56,0.00,,,0.00,Wunderground v.1.15,2013-02-01 23:50:00,
2013-02-01 18:55:00,20.1,6.9,30.07,NE,34,2.0,8.0,56,0.00,,,0.00,Wunderground v.1.15,2013-02-01 23:55:00,
2013-02-01 19:00:00,20.0,7.2,30.07,NNE,32,1.0,1.0,57,0.00,,,0.00,Wunderground v.1.15,2013-02-02 00:00:00,
2013-02-01 19:05:00,19.8,7.0,30.07,NE,50,1.0,8.0,57,0.00,,,0.00,Wunderground v.1.15,2013-02-02 00:05:00,
2013-02-01 19:10:00,19.7,6.9,30.07,NNE,13,1.0,1.0,57,0.00,,,0.00,Wunderground v.1.15,2013-02-02 00:10:00,
2013-02-01 19:20:00,19.8,7.0,30.08,ENE,65,2.0,8.0,57,0.00,,,0.00,Wunderground v.1.15,2013-02-02 00:20:00,
2013-02-01 19:25:00,19.8,7.0,30.08,NE,43,2.0,8.0,57,0.00,,,0.00,Wunderground v.1.15,2013-02-02 00:25:00,
2013-02-01 19:30:00,19.8,7.4,30.08,North,360,2.0,8.0,58,0.00,,,0.00,Wunderground v.1.15,2013-02-02 00:30:00,
2013-02-01 19:35:00,19.7,6.9,30.08,ENE,68,1.0,8.0,57,0.00,,,0.00,Wunderground v.1.15,2013-02-02 00:35:00,
2013-02-01 19:40:00,19.7,7.7,30.08,NE,52,2.0,2.0,59,0.00,,,0.00,Wunderground v.1.15,2013-02-02 00:40:00,
2013-02-01 19:45:00,19.6,7.2,30.09,NNE,16,1.0,8.0,58,0.00,,,0.00,Wunderground v.1.15,2013-02-02 00:45:00,
2013-02-01 19:55:00,19.7,7.3,30.09,NE,42,1.0,2.0,58,0.00,,,0.00,Wunderground v.1.15,2013-02-02 00:55:00,
2013-02-01 20:00:00,19.7,6.9,30.10,NE,36,1.0,1.0,57,0.00,,,0.00,Wunderground v.1.15,2013-02-02 01:00:00,
2013-02-01 20:05:00,19.7,7.3,30.10,NE,44,1.0,2.0,58,0.00,,,0.00,Wunderground v.1.15,2013-02-02 01:05:00,
2013-02-01 20:10:00,19.6,8.3,30.10,ENE,66,4.0,9.0,61,0.00,,,0.00,Wunderground v.1.15,2013-02-02 01:10:00,
2013-02-01 20:15:00,19.5,7.9,30.10,NE,40,5.0,9.0,60,0.00,,,0.00,Wunderground v.1.15,2013-02-02 01:15:00,
2013-02-01 20:20:00,19.4,8.1,30.10,NNW,346,2.0,2.0,61,0.00,,,0.00,Wunderground v.1.15,2013-02-02 01:20:00,
2013-02-01 20:25:00,19.3,8.4,30.10,ENE,60,1.0,8.0,62,0.00,,,0.00,Wunderground v.1.15,2013-02-02 01:25:00,
2013-02-01 20:35:00,18.9,8.4,30.11,NE,35,1.0,8.0,63,0.00,,,0.00,Wunderground v.1.15,2013-02-02 01:35:00,
2013-02-01 20:45:00,18.6,8.1,30.11,NNE,28,0.0,8.0,63,0.00,,,0.00,Wunderground v.1.15,2013-02-02 01:45:00,
2013-02-01 20:50:00,18.6,8.1,30.11,NNE,28,0.0,8.0,63,0.00,,,0.00,Wunderground v.1.15,2013-02-02 01:50:00,
2013-02-01 20:55:00,18.5,8.0,30.11,NNE,28,0.0,8.0,63,0.00,,,0.00,Wunderground v.1.15,2013-02-02 01:55:00,
2013-02-01 21:00:00,18.4,7.9,30.11,NNE,28,0.0,8.0,63,0.00,,,0.00,Wunderground v.1.15,2013-02-02 02:00:00,
2013-02-01 21:05:00,18.3,8.1,30.11,NNE,30,0.0,8.0,64,0.00,,,0.00,Wunderground v.1.15,2013-02-02 02:05:00,
2013-02-01 21:15:00,18.0,7.9,30.12,NNE,30,0.0,8.0,64,0.00,,,0.00,Wunderground v.1.15,2013-02-02 02:15:00,
2013-02-01 21:20:00,18.0,7.9,30.12,NNE,30,0.0,8.0,64,0.00,,,0.00,Wunderground v.1.15,2013-02-02 02:20:00,
2013-02-01 21:25:00,18.0,7.9,30.12,NNE,30,0.0,8.0,64,0.00,,,0.00,Wunderground v.1.15,2013-02-02 02:25:00,
2013-02-01 21:30:00,18.0,7.9,30.12,NNE,30,0.0,8.0,64,0.00,,,0.00,Wunderground v.1.15,2013-02-02 02:30:00,
2013-02-01 21:35:00,18.2,7.7,30.13,NNE,12,0.0,8.0,63,0.00,,,0.00,Wunderground v.1.15,2013-02-02 02:35:00,
2013-02-01 21:40:00,18.4,8.2,30.13,North,360,0.0,8.0,64,0.00,,,0.00,Wunderground v.1.15,2013-02-02 02:40:00,
2013-02-01 21:45:00,18.5,8.0,30.13,North,355,0.0,8.0,63,0.00,,,0.00,Wunderground v.1.15,2013-02-02 02:45:00,
2013-02-01 21:50:00,18.7,7.1,30.13,North,11,1.0,1.0,60,0.00,,,0.00,Wunderground v.1.15,2013-02-02 02:50:00,
2013-02-01 21:55:00,18.9,6.9,30.13,NNE,13,1.0,8.0,59,0.00,,,0.00,Wunderground v.1.15,2013-02-02 02:55:00,
2013-02-01 22:05:00,19.0,6.3,30.13,NNW,346,2.0,3.0,57,0.00,,,0.00,Wunderground v.1.15,2013-02-02 03:05:00,
2013-02-01 22:10:00,19.1,6.3,30.13,NNE,23,3.0,8.0,57,0.00,,,0.00,Wunderground v.1.15,2013-02-02 03:10:00,
2013-02-01 22:15:00,19.2,6.4,30.14,ENE,60,3.0,8.0,57,0.00,,,0.00,Wunderground v.1.15,2013-02-02 03:15:00,
2013-02-01 22:20:00,19.1,5.6,30.13,North,360,2.0,8.0,55,0.00,,,0.00,Wunderground v.1.15,2013-02-02 03:20:00,
2013-02-01 22:25:00,19.3,6.1,30.14,WNW,299,3.0,8.0,56,0.00,,,0.00,Wunderground v.1.15,2013-02-02 03:25:00,
2013-02-01 22:30:00,19.3,5.7,30.14,North,355,3.0,8.0,55,0.00,,,0.00,Wunderground v.1.15,2013-02-02 03:30:00,
2013-02-01 22:40:00,19.3,5.3,30.14,NNE,22,4.0,4.0,54,0.00,,,0.00,Wunderground v.1.15,2013-02-02 03:40:00,
2013-02-01 22:45:00,19.3,5.7,30.14,NNE,24,3.0,8.0,55,0.00,,,0.00,Wunderground v.1.15,2013-02-02 03:45:00,
2013-02-01 22:50:00,19.2,5.7,30.14,North,355,2.0,8.0,55,0.00,,,0.00,Wunderground v.1.15,2013-02-02 03:50:00,
2013-02-01 23:00:00,18.9,5.8,30.15,NE,51,1.0,8.0,56,0.00,,,0.00,Wunderground v.1.15,2013-02-02 04:00:00,
2013-02-01 23:05:00,18.9,5.4,30.15,North,5,1.0,8.0,55,0.00,,,0.00,Wunderground v.1.15,2013-02-02 04:05:00,
2013-02-01 23:10:00,18.8,5.7,30.15,North,355,2.0,2.0,56,0.00,,,0.00,Wunderground v.1.15,2013-02-02 04:10:00,
2013-02-01 23:15:00,18.8,5.7,30.15,NNE,17,1.0,8.0,56,0.00,,,0.00,Wunderground v.1.15,2013-02-02 04:15:00,
2013-02-01 23:25:00,18.8,5.7,30.16,NE,36,1.0,8.0,56,0.00,,,0.00,Wunderground v.1.15,2013-02-02 04:25:00,
2013-02-01 23:35:00,18.7,6.0,30.16,NW,314,1.0,3.0,57,0.00,,,0.00,Wunderground v.1.15,2013-02-02 04:35:00,
2013-02-01 23:40:00,18.7,6.0,30.16,NW,304,1.0,8.0,57,0.00,,,0.00,Wunderground v.1.15,2013-02-02 04:40:00,
2013-02-01 23:45:00,18.6,5.5,30.16,NNW,332,2.0,8.0,56,0.00,,,0.00,Wunderground v.1.15,2013-02-02 04:45:00,
2013-02-01 23:50:00,18.6,5.9,30.17,NW,315,1.0,1.0,57,0.00,,,0.00,Wunderground v.1.15,2013-02-02 04:50:00,
2013-02-01 23:55:00,18.4,6.1,30.17,NNW,338,0.0,2.0,58,0.00,,,0.00,Wunderground v.1.15,2013-02-02 04:55:00,